Time;durP1;ratioP1;P1;durP2;ratioP2;P2;SDS_P1;SDS_P2;PMS_P1;PMS_P2;Temp;Humidity;BMP_temperature;BMP_pressure;BME280_temperature;BME280_humidity;BME280_pressure;Samples;Min_cycle;Max_cycle;Signal;HPM_P1;HPM_P2
2021/06/12 00:01:09;;;;;;;14.48;9.35;;;;;;;16.57;70.81;99965.22;5028433;28;20037;-24
2021/06/12 00:03:36;;;;;;;14.82;8.45;;;;;;;16.19;71.33;99960.94;5029410;28;20092;-24
2021/06/12 00:06:05;;;;;;;9.10;6.15;;;;;;;15.68;72.64;99972.88;5029382;28;20485;-24
2021/06/12 00:08:31;;;;;;;7.80;5.82;;;;;;;15.85;71.90;99971.97;5027385;28;20477;-24
2021/06/12 00:10:56;;;;;;;8.27;6.38;;;;;;;15.71;72.02;99954.59;5029135;28;20525;-24
2021/06/12 00:13:22;;;;;;;9.80;7.00;;;;;;;15.90;72.80;99971.22;5027872;28;20041;-24
2021/06/12 00:15:47;;;;;;;11.27;7.25;;;;;;;16.07;71.56;99979.94;5029090;28;20102;-24
2021/06/12 00:18:13;;;;;;;14.25;9.02;;;;;;;16.27;70.69;99965.84;5028670;28;20037;-24
2021/06/12 00:20:39;;;;;;;13.95;8.35;;;;;;;16.43;69.99;99967.56;5029098;28;20025;-24
2021/06/12 00:23:05;;;;;;;13.45;8.38;;;;;;;16.80;68.19;99969.38;5029210;28;20041;-24
2021/06/12 00:25:31;;;;;;;12.77;8.63;;;;;;;16.70;68.74;99963.94;5029066;28;20029;-24
2021/06/12 00:28:00;;;;;;;13.10;8.95;;;;;;;16.98;67.65;99956.53;5029072;28;20096;-24
2021/06/12 00:30:26;;;;;;;16.25;9.68;;;;;;;17.11;67.33;99974.09;5028684;28;20032;-24
2021/06/12 00:32:52;;;;;;;14.48;9.18;;;;;;;17.02;67.87;99981.88;5028818;28;20401;-24
2021/06/12 00:35:18;;;;;;;18.05;9.55;;;;;;;16.63;69.31;99983.03;5028650;28;20506;-24
2021/06/12 00:37:43;;;;;;;13.45;8.25;;;;;;;15.93;71.67;99973.38;5027573;28;20063;-24
2021/06/12 00:40:11;;;;;;;13.77;8.65;;;;;;;16.36;69.85;99972.34;5028754;28;20029;-24
2021/06/12 00:42:40;;;;;;;12.73;9.15;;;;;;;16.52;69.83;99962.47;5028710;28;20033;-24
2021/06/12 00:45:22;;;;;;;18.42;9.35;;;;;;;16.70;69.14;99973.91;5028552;28;20033;-24
2021/06/12 00:47:49;;;;;;;16.83;9.50;;;;;;;16.62;68.69;99970.63;5027615;28;20047;-24
2021/06/12 00:50:15;;;;;;;14.35;9.57;;;;;;;16.65;68.40;99969.28;5029136;28;20111;-24
2021/06/12 00:52:41;;;;;;;16.58;9.80;;;;;;;16.54;69.09;99967.63;5027338;28;20878;-24
2021/06/12 00:55:08;;;;;;;14.35;10.13;;;;;;;16.60;68.49;99971.97;5027362;28;20065;-24
2021/06/12 00:57:34;;;;;;;15.90;9.57;;;;;;;16.92;67.55;99969.19;5028730;28;20108;-24
2021/06/12 01:00:00;;;;;;;14.77;9.50;;;;;;;16.93;67.31;99975.38;5010667;28;20041;-24
2021/06/12 01:02:26;;;;;;;10.65;7.80;;;;;;;15.97;70.15;99959.16;5027044;28;20042;-24
2021/06/12 01:04:51;;;;;;;11.95;8.32;;;;;;;16.32;69.20;99973.94;5028280;28;20028;-24
2021/06/12 01:07:17;;;;;;;10.93;8.18;;;;;;;15.99;70.39;99978.53;5028426;28;20041;-24
2021/06/12 01:09:42;;;;;;;12.93;8.15;;;;;;;16.44;68.62;99974.53;5028175;28;20417;-24
2021/06/12 01:12:32;;;;;;;13.02;7.63;;;;;;;16.60;67.46;99977.34;5028097;28;20045;-24
2021/06/12 01:15:00;;;;;;;14.05;7.50;;;;;;;16.46;67.66;99960.84;5028171;28;20036;-24
2021/06/12 01:17:37;;;;;;;;;;;;;;;16.43;68.41;99983.69;5011109;28;20115;-24
2021/06/12 01:20:21;;;;;;;12.02;7.55;;;;;;;16.59;68.48;99979.22;5026725;28;19916;-24
2021/06/12 01:22:46;;;;;;;13.23;7.45;;;;;;;16.76;69.02;99980.94;5028047;28;20100;-24
2021/06/12 01:25:23;;;;;;;11.95;7.55;;;;;;;16.92;67.95;99962.97;5027818;28;20041;-24
2021/06/12 01:27:57;;;;;;;12.88;7.97;;;;;;;16.89;68.92;99979.66;5028012;28;20040;-24
2021/06/12 01:30:43;;;;;;;12.43;7.43;;;;;;;16.19;71.29;99961.75;5027724;28;20037;-24
2021/06/12 01:33:10;;;;;;;11.63;6.90;;;;;;;15.81;71.13;99958.25;5027381;28;20421;-24
2021/06/12 01:35:43;;;;;;;13.40;6.47;;;;;;;14.98;72.83;99968.38;5026474;28;20124;-24
2021/06/12 01:38:13;;;;;;;14.23;6.70;;;;;;;15.06;72.17;99965.25;5026723;28;20512;-24
2021/06/12 01:40:41;;;;;;;12.90;6.20;;;;;;;15.39;71.43;99956.19;5010814;28;20033;-24
2021/06/12 01:43:07;;;;;;;11.52;6.95;;;;;;;15.59;70.72;99974.41;5010371;28;21187;-25
2021/06/12 01:45:33;;;;;;;10.68;5.85;;;;;;;15.24;72.26;99967.59;5010136;28;20068;-24
2021/06/12 01:47:58;;;;;;;12.18;6.18;;;;;;;15.71;70.58;99976.09;5026311;28;20816;-24
2021/06/12 01:50:24;;;;;;;17.17;7.32;;;;;;;15.80;70.13;99959.28;5026048;28;20037;-24
2021/06/12 01:52:50;;;;;;;11.20;7.15;;;;;;;16.06;69.62;99965.69;5026032;28;20053;-24
2021/06/12 01:55:17;;;;;;;13.02;8.00;;;;;;;16.06;69.47;99956.81;5026467;28;20060;-24
2021/06/12 01:57:42;;;;;;;12.32;8.85;;;;;;;15.47;71.63;99960.31;5026074;28;20037;-24
2021/06/12 02:00:09;;;;;;;13.60;8.95;;;;;;;15.39;72.92;99971.50;5027349;28;20037;-24
2021/06/12 02:02:36;;;;;;;12.15;9.30;;;;;;;15.91;71.80;99979.00;5027198;28;20493;-24
2021/06/12 02:05:01;;;;;;;13.00;9.15;;;;;;;15.90;70.98;99966.63;5009981;28;20057;-24
2021/06/12 02:07:28;;;;;;;13.32;9.02;;;;;;;15.82;71.42;99973.28;5027313;28;20068;-24
2021/06/12 02:09:54;;;;;;;11.73;9.10;;;;;;;16.32;69.99;99971.25;5026235;28;20033;-24
2021/06/12 02:12:19;;;;;;;11.43;8.82;;;;;;;16.26;70.27;99969.59;5025773;28;20037;-24
2021/06/12 02:14:45;;;;;;;12.50;9.18;;;;;;;16.52;69.45;99973.25;5025914;28;20022;-24
2021/06/12 02:17:10;;;;;;;13.00;8.50;;;;;;;16.57;68.85;99977.84;5025728;28;20115;-24
2021/06/12 02:19:37;;;;;;;13.52;9.15;;;;;;;16.44;68.83;99958.41;5009409;28;20038;-24
2021/06/12 02:22:04;;;;;;;12.95;9.07;;;;;;;16.67;68.78;99978.75;5009890;28;20049;-24
2021/06/12 02:24:29;;;;;;;15.13;8.73;;;;;;;16.67;68.57;99948.28;5026863;28;20513;-24
2021/06/12 02:26:55;;;;;;;11.55;8.63;;;;;;;16.92;68.35;99984.50;5027001;28;20037;-24
2021/06/12 02:29:20;;;;;;;12.52;8.77;;;;;;;16.92;68.00;99966.50;5025876;28;20030;-25
2021/06/12 02:31:48;;;;;;;12.20;8.50;;;;;;;16.78;68.65;99971.50;5009538;28;20095;-24
2021/06/12 02:34:14;;;;;;;16.45;9.10;;;;;;;16.80;69.20;99972.06;5030428;28;20393;-24
2021/06/12 02:36:39;;;;;;;10.20;8.13;;;;;;;16.93;68.68;99984.25;5033459;28;20482;-24
2021/06/12 02:39:05;;;;;;;10.60;7.40;;;;;;;16.68;68.84;99971.47;5036106;28;20048;-24
2021/06/12 02:41:31;;;;;;;19.92;9.00;;;;;;;16.85;68.46;99979.38;5036068;28;20032;-24
2021/06/12 02:43:57;;;;;;;10.07;7.43;;;;;;;16.97;68.30;99990.75;5036340;28;20025;-24
2021/06/12 02:46:24;;;;;;;15.88;7.97;;;;;;;16.97;68.08;99976.47;5035696;28;20075;-24
2021/06/12 02:48:51;;;;;;;12.60;8.10;;;;;;;16.82;68.92;99996.88;5035365;28;20108;-24
2021/06/12 02:51:16;;;;;;;12.20;7.82;;;;;;;16.59;69.17;99997.25;5018478;28;20045;-24
2021/06/12 02:53:42;;;;;;;10.90;7.03;;;;;;;16.69;68.76;99981.16;5035811;28;20060;-24
2021/06/12 02:56:07;;;;;;;11.65;7.60;;;;;;;16.67;69.09;99996.75;5034716;28;20022;-24
2021/06/12 02:58:33;;;;;;;14.20;7.50;;;;;;;16.89;68.04;99985.06;5034592;28;20405;-24
2021/06/12 03:00:58;;;;;;;11.57;7.97;;;;;;;17.00;68.27;99984.84;5018033;28;20034;-24
2021/06/12 03:03:24;;;;;;;14.20;8.27;;;;;;;17.26;67.47;99998.38;5035879;28;20052;-24
2021/06/12 03:05:56;;;;;;;13.25;7.35;;;;;;;16.82;68.77;99990.69;5034449;28;20029;-24
2021/06/12 03:08:21;;;;;;;12.63;8.05;;;;;;;17.04;68.20;100004.78;5035914;28;20029;-24
2021/06/12 03:10:47;;;;;;;13.35;7.68;;;;;;;17.02;68.81;100011.50;5017898;28;20037;-24
2021/06/12 03:13:13;;;;;;;12.55;7.90;;;;;;;17.09;68.92;100008.59;5034332;28;20512;-24
2021/06/12 03:15:39;;;;;;;14.02;8.15;;;;;;;17.19;67.87;100004.03;5035395;28;20021;-24
2021/06/12 03:18:05;;;;;;;10.95;7.45;;;;;;;16.89;68.66;99995.81;5034054;28;20111;-24
2021/06/12 03:20:30;;;;;;;12.77;8.40;;;;;;;17.19;67.63;99995.94;5034243;28;20490;-24
2021/06/12 03:23:01;;;;;;;11.68;8.02;;;;;;;16.87;69.16;100020.31;5035387;28;20037;-24
2021/06/12 03:25:26;;;;;;;15.73;8.30;;;;;;;17.04;68.78;100017.44;5018324;28;20517;-24
2021/06/12 03:27:52;;;;;;;12.18;7.75;;;;;;;16.86;69.05;100024.09;5017485;28;20053;-24
2021/06/12 03:30:18;;;;;;;14.57;8.38;;;;;;;16.80;68.90;99998.19;5017439;28;20040;-24
2021/06/12 03:32:43;;;;;;;11.60;7.90;;;;;;;16.98;69.15;100021.19;5035204;28;20029;-24
2021/06/12 03:35:09;;;;;;;14.93;8.50;;;;;;;16.70;70.46;100025.88;5033957;28;20025;-24
2021/06/12 03:37:35;;;;;;;12.88;8.23;;;;;;;16.93;69.57;100011.19;5035214;28;20034;-24
2021/06/12 03:40:00;;;;;;;13.57;7.78;;;;;;;16.72;70.25;100023.72;5033799;28;20035;-24
2021/06/12 03:42:26;;;;;;;13.98;8.95;;;;;;;16.53;71.07;100007.19;5034869;28;20037;-24
2021/06/12 03:44:53;;;;;;;12.43;7.88;;;;;;;16.99;69.42;100028.19;5032225;28;20033;-24
2021/06/12 03:47:18;;;;;;;11.93;8.30;;;;;;;17.19;68.81;100027.50;5017271;28;20029;-24
2021/06/12 03:49:43;;;;;;;13.82;8.05;;;;;;;17.26;69.12;100023.47;5033968;28;20025;-24
2021/06/12 03:52:09;;;;;;;13.50;8.40;;;;;;;17.23;69.16;100034.78;5017004;28;20409;-24
2021/06/12 03:54:38;;;;;;;12.27;8.32;;;;;;;17.03;70.63;100035.50;5033373;28;20049;-24
2021/06/12 03:57:04;;;;;;;13.57;9.20;;;;;;;17.19;70.34;100038.25;5033387;28;20112;-24
2021/06/12 03:59:29;;;;;;;11.00;8.75;;;;;;;16.96;70.85;100034.09;5033091;28;20409;-24
2021/06/12 04:01:58;;;;;;;11.32;8.65;;;;;;;17.37;70.01;100040.50;5033447;28;20025;-24
2021/06/12 04:04:26;;;;;;;12.77;8.77;;;;;;;17.39;69.18;100032.16;5017001;28;20520;-24
2021/06/12 04:06:51;;;;;;;15.27;9.80;;;;;;;17.56;68.23;100019.22;5034451;28;20108;-24
2021/06/12 04:09:17;;;;;;;15.82;10.10;;;;;;;17.83;68.13;100029.81;5034360;28;20033;-24
2021/06/12 04:11:42;;;;;;;13.68;9.07;;;;;;;17.56;69.46;100035.41;5034290;28;20379;-24
2021/06/12 04:14:08;;;;;;;14.65;9.77;;;;;;;17.71;69.00;100044.63;5034338;28;20040;-24
2021/06/12 04:16:33;;;;;;;13.82;10.02;;;;;;;17.81;69.08;100041.94;5034378;28;20029;-24
2021/06/12 04:19:02;;;;;;;20.95;11.02;;;;;;;17.94;68.88;100049.56;5016611;28;20037;-24
2021/06/12 04:21:27;;;;;;;13.90;10.52;;;;;;;17.75;69.69;100045.69;5031306;28;20116;-24
2021/06/12 04:23:53;;;;;;;17.48;10.68;;;;;;;17.81;69.72;100056.22;5028990;28;20056;-24
2021/06/12 04:26:18;;;;;;;19.38;11.00;;;;;;;17.78;69.81;100047.88;5028747;28;20022;-24
2021/06/12 04:28:44;;;;;;;13.45;10.50;;;;;;;17.92;69.90;100051.72;5029135;28;20037;-24
2021/06/12 04:31:10;;;;;;;14.70;10.73;;;;;;;17.87;70.15;100043.59;5029297;28;20494;-24
2021/06/12 04:33:36;;;;;;;17.58;11.23;;;;;;;18.25;69.34;100049.56;5029214;28;20029;-24
2021/06/12 04:36:01;;;;;;;15.98;11.45;;;;;;;18.33;68.79;100043.63;5029292;28;20033;-24
2021/06/12 04:38:27;;;;;;;19.23;10.15;;;;;;;18.45;68.11;100049.56;5027750;28;20832;-24
2021/06/12 04:40:52;;;;;;;18.02;11.18;;;;;;;18.42;68.79;100063.59;5029026;28;20033;-24
2021/06/12 04:43:18;;;;;;;17.98;12.02;;;;;;;18.52;68.48;100053.88;5028690;28;20036;-24
2021/06/12 04:45:43;;;;;;;20.27;12.60;;;;;;;18.66;68.36;100057.63;5028747;28;20465;-24
2021/06/12 04:48:09;;;;;;;17.55;11.50;;;;;;;18.82;68.05;100063.84;5028808;28;20069;-24
2021/06/12 04:50:37;;;;;;;17.65;11.13;;;;;;;18.71;68.07;100052.22;5028406;28;20029;-24
2021/06/12 04:53:06;;;;;;;14.45;10.80;;;;;;;18.64;69.70;100067.91;5028403;28;20504;-24
2021/06/12 04:55:32;;;;;;;16.50;11.27;;;;;;;18.70;69.25;100060.59;5026776;28;20033;-24
2021/06/12 04:57:57;;;;;;;17.77;11.85;;;;;;;18.85;68.84;100068.69;5028681;28;20405;-24
2021/06/12 05:00:23;;;;;;;15.70;10.82;;;;;;;18.83;68.66;100074.38;5028278;28;20093;-24
2021/06/12 05:02:49;;;;;;;18.55;12.75;;;;;;;18.88;69.29;100078.97;5028418;28;20034;-24
2021/06/12 05:05:14;;;;;;;16.77;12.13;;;;;;;18.80;69.26;100082.22;5028238;28;20033;-24
2021/06/12 05:07:39;;;;;;;18.45;11.77;;;;;;;18.90;68.96;100081.38;5028227;28;20033;-24
2021/06/12 05:10:06;;;;;;;19.98;12.60;;;;;;;18.78;69.35;100087.88;5028271;28;20477;-24
2021/06/12 05:12:32;;;;;;;33.30;15.15;;;;;;;19.03;68.96;100094.34;5028076;28;20033;-24
2021/06/12 05:15:00;;;;;;;19.63;12.07;;;;;;;19.06;68.17;100077.56;5026829;28;20025;-24
2021/06/12 05:17:27;;;;;;;19.08;12.13;;;;;;;19.10;68.73;100086.72;5028160;28;20036;-24
2021/06/12 05:19:52;;;;;;;19.35;11.45;;;;;;;19.13;68.04;100075.38;5027966;28;20413;-24
2021/06/12 05:22:22;;;;;;;15.73;11.90;;;;;;;19.23;67.85;100078.06;5027770;28;20702;-24
2021/06/12 05:24:47;;;;;;;19.88;12.55;;;;;;;19.19;68.05;100084.28;5027945;28;20116;-24
2021/06/12 05:27:13;;;;;;;15.85;11.95;;;;;;;19.12;69.27;100089.97;5026860;28;20037;-24
2021/06/12 05:29:38;;;;;;;18.15;12.18;;;;;;;18.98;70.06;100100.56;5027842;28;20486;-24
2021/06/12 05:32:04;;;;;;;20.15;12.18;;;;;;;19.20;68.67;100097.50;5027895;28;20037;-24
2021/06/12 05:34:30;;;;;;;18.60;12.02;;;;;;;19.40;67.80;100095.81;5027434;28;20136;-24
2021/06/12 05:36:57;;;;;;;19.30;12.07;;;;;;;19.68;67.56;100105.19;5027880;28;20040;-24
2021/06/12 05:39:22;;;;;;;19.38;12.65;;;;;;;19.87;67.21;100105.38;5026539;28;20035;-24
2021/06/12 05:41:47;;;;;;;17.98;12.93;;;;;;;19.59;67.52;100099.50;5027988;28;20790;-24
2021/06/12 05:44:13;;;;;;;19.10;14.00;;;;;;;19.96;67.39;100102.88;5027515;28;20033;-24
2021/06/12 05:46:38;;;;;;;18.58;13.90;;;;;;;19.89;67.39;100100.47;5027581;28;20029;-24
2021/06/12 05:49:04;;;;;;;19.13;12.75;;;;;;;19.84;67.44;100090.50;5026195;28;20044;-24
2021/06/12 05:51:29;;;;;;;16.90;12.57;;;;;;;20.10;66.50;100109.28;5027395;28;20033;-24
2021/06/12 05:53:55;;;;;;;21.67;13.13;;;;;;;20.00;67.16;100099.34;5027231;28;20057;-25
2021/06/12 05:56:20;;;;;;;17.95;13.80;;;;;;;19.93;67.30;100098.84;5026735;28;20083;-24
2021/06/12 05:58:46;;;;;;;16.45;13.00;;;;;;;19.92;67.10;100086.41;5026961;28;20091;-24
2021/06/12 06:01:12;;;;;;;19.63;11.75;;;;;;;20.02;66.37;100096.34;5027402;28;20072;-24
2021/06/12 06:03:38;;;;;;;15.90;11.98;;;;;;;20.14;65.53;100091.38;5027487;28;20044;-24
2021/06/12 06:06:06;;;;;;;14.68;12.25;;;;;;;20.08;65.32;100100.63;5027012;28;20021;-24
2021/06/12 06:08:31;;;;;;;16.65;11.82;;;;;;;19.89;66.35;100086.94;5026147;28;20115;-24
2021/06/12 06:10:57;;;;;;;15.27;11.27;;;;;;;20.03;65.44;100077.09;5027260;28;20041;-24
2021/06/12 06:13:22;;;;;;;15.57;11.27;;;;;;;20.09;64.74;100096.84;5027373;28;20506;-24
2021/06/12 06:15:48;;;;;;;15.80;11.80;;;;;;;20.34;65.06;100098.53;5027525;28;20030;-24
2021/06/12 06:18:15;;;;;;;17.67;11.48;;;;;;;20.38;64.44;100099.59;5027038;28;20383;-24
2021/06/12 06:20:41;;;;;;;14.77;10.82;;;;;;;20.35;64.25;100088.50;5027348;28;20044;-24
2021/06/12 06:23:06;;;;;;;14.40;9.50;;;;;;;19.81;65.76;100095.66;5027391;28;20091;-25
2021/06/12 06:25:32;;;;;;;14.95;10.15;;;;;;;20.01;65.54;100090.13;5027481;28;20482;-24
2021/06/12 06:27:57;;;;;;;11.63;8.70;;;;;;;20.19;64.03;100095.97;5027627;28;20040;-24
2021/06/12 06:30:23;;;;;;;10.57;7.63;;;;;;;20.30;63.47;100092.06;5026984;28;20029;-24
2021/06/12 06:32:49;;;;;;;9.73;7.15;;;;;;;20.38;62.15;100091.47;5027051;28;20054;-24
2021/06/12 06:35:14;;;;;;;10.23;6.88;;;;;;;20.20;62.57;100067.78;5025572;28;20025;-24
2021/06/12 06:37:41;;;;;;;9.32;6.78;;;;;;;20.35;62.66;100072.25;5027048;28;20032;-24
2021/06/12 06:40:07;;;;;;;9.55;6.70;;;;;;;20.44;61.70;100087.63;5027019;28;20033;-24
2021/06/12 06:42:33;;;;;;;7.20;5.63;;;;;;;20.41;61.33;100071.94;5026860;28;20095;-24
2021/06/12 06:44:58;;;;;;;9.07;5.50;;;;;;;20.41;60.58;100066.53;5026811;28;20037;-24
2021/06/12 06:47:24;;;;;;;11.35;5.70;;;;;;;20.40;61.46;100083.88;5026925;28;20033;-24
2021/06/12 06:49:49;;;;;;;7.80;5.85;;;;;;;20.45;61.61;100083.84;5026925;28;20394;-24
2021/06/12 06:52:14;;;;;;;7.35;5.43;;;;;;;20.41;61.42;100082.78;5026444;28;20037;-24
2021/06/12 06:54:42;;;;;;;9.15;5.65;;;;;;;20.58;60.89;100081.56;5026808;28;20030;-25
2021/06/12 06:57:07;;;;;;;8.60;5.90;;;;;;;20.53;61.14;100085.09;5026874;28;20124;-24
2021/06/12 06:59:33;;;;;;;7.97;5.40;;;;;;;20.46;60.60;100084.63;5026840;28;20276;-24
2021/06/12 07:02:00;;;;;;;9.50;5.32;;;;;;;20.58;60.86;100070.72;5026960;28;20060;-24
2021/06/12 07:04:25;;;;;;;8.38;5.78;;;;;;;20.66;60.20;100075.56;5026617;28;20029;-24
2021/06/12 07:06:51;;;;;;;8.68;5.20;;;;;;;20.55;60.25;100082.13;5026892;28;20033;-24
2021/06/12 07:09:16;;;;;;;7.75;5.15;;;;;;;20.56;60.08;100083.75;5026847;28;20029;-24
2021/06/12 07:11:42;;;;;;;7.85;5.30;;;;;;;20.39;61.02;100078.72;5026611;28;20095;-26
2021/06/12 07:14:07;;;;;;;5.63;4.60;;;;;;;20.51;59.89;100065.63;5026612;28;20030;-24
2021/06/12 07:16:33;;;;;;;8.60;4.72;;;;;;;20.37;58.91;100083.63;5026318;28;20084;-24
2021/06/12 07:18:58;;;;;;;8.48;4.82;;;;;;;20.21;60.26;100059.38;5028185;28;20036;-24
2021/06/12 07:21:24;;;;;;;7.00;5.20;;;;;;;20.65;60.02;100082.06;5030231;28;20040;-24
2021/06/12 07:23:49;;;;;;;7.68;4.97;;;;;;;20.93;59.35;100071.50;5030253;28;20030;-24
2021/06/12 07:26:15;;;;;;;8.13;4.63;;;;;;;21.33;57.67;100081.06;5030094;28;20025;-24
2021/06/12 07:28:40;;;;;;;6.97;4.78;;;;;;;21.57;57.37;100075.59;5029959;28;20029;-24
2021/06/12 07:31:05;;;;;;;7.10;4.70;;;;;;;21.66;56.75;100083.94;5030020;28;20079;-24
2021/06/12 07:33:31;;;;;;;7.88;4.88;;;;;;;21.65;57.15;100085.00;5029478;28;20087;-24
2021/06/12 07:35:56;;;;;;;9.60;5.15;;;;;;;21.71;57.48;100069.47;5030367;28;20152;-24
2021/06/12 07:38:22;;;;;;;6.95;4.88;;;;;;;21.85;56.12;100081.22;5030006;28;20022;-24
2021/06/12 07:40:48;;;;;;;8.30;4.80;;;;;;;21.92;56.90;100078.91;5030145;28;20045;-24
2021/06/12 07:43:18;;;;;;;6.22;4.80;;;;;;;21.64;56.66;100059.78;5030025;28;20075;-24
2021/06/12 07:45:45;;;;;;;7.20;4.72;;;;;;;22.17;56.13;100066.03;5029860;28;20496;-24
2021/06/12 07:48:10;;;;;;;6.22;4.53;;;;;;;22.29;56.34;100055.56;5029674;28;20026;-24
2021/06/12 07:50:36;;;;;;;7.15;4.85;;;;;;;22.25;55.40;100070.81;5029863;28;20037;-24
2021/06/12 07:53:02;;;;;;;9.00;4.60;;;;;;;22.30;56.21;100076.19;5030136;28;20104;-24
2021/06/12 07:55:27;;;;;;;7.80;5.00;;;;;;;22.55;55.45;100063.28;5029747;28;20517;-24
2021/06/12 07:57:53;;;;;;;8.35;5.63;;;;;;;22.95;54.85;100052.75;5028531;28;20064;-24
2021/06/12 08:00:19;;;;;;;9.05;5.75;;;;;;;23.38;53.72;100057.91;5029351;28;20041;-24
2021/06/12 08:02:44;;;;;;;10.40;6.25;;;;;;;23.85;50.95;100061.25;5029283;28;20018;-24
2021/06/12 08:05:10;;;;;;;6.65;5.00;;;;;;;23.90;52.77;100060.31;5029262;28;20037;-24
2021/06/12 08:07:35;;;;;;;7.50;4.90;;;;;;;23.80;51.99;100045.00;5029607;28;20121;-24
2021/06/12 08:10:03;;;;;;;8.25;4.85;;;;;;;23.90;51.95;100063.84;5029446;28;20191;-24
2021/06/12 08:12:30;;;;;;;8.52;6.03;;;;;;;24.11;50.27;100057.91;5029186;28;20571;-24
2021/06/12 08:14:55;;;;;;;7.60;4.87;;;;;;;24.23;49.64;100061.69;5029335;28;20041;-24
2021/06/12 08:17:21;;;;;;;7.43;4.75;;;;;;;24.47;49.79;100053.16;5029233;28;20037;-24
2021/06/12 08:19:46;;;;;;;7.85;5.07;;;;;;;24.59;49.51;100054.56;5029132;28;20034;-24
2021/06/12 08:22:12;;;;;;;8.90;4.78;;;;;;;24.58;50.58;100055.66;5029063;28;20029;-24
2021/06/12 08:24:38;;;;;;;7.55;4.60;;;;;;;24.52;49.20;100056.91;5029121;28;20041;-24
2021/06/12 08:27:04;;;;;;;7.05;4.50;;;;;;;24.37;48.23;100047.97;5029124;28;20029;-24
2021/06/12 08:29:30;;;;;;;7.28;4.35;;;;;;;24.34;48.71;100054.06;5028747;28;20030;-24
2021/06/12 08:31:55;;;;;;;9.63;4.90;;;;;;;24.16;49.06;100041.44;5028657;28;20409;-24
2021/06/12 08:34:22;;;;;;;7.22;5.10;;;;;;;24.19;48.98;100038.91;5028829;28;20136;-24
2021/06/12 08:36:48;;;;;;;8.00;4.90;;;;;;;24.25;49.59;100039.56;5029557;28;20033;-24
2021/06/12 08:39:14;;;;;;;7.78;5.00;;;;;;;24.39;49.47;100045.75;5029354;28;20134;-24
2021/06/12 08:41:39;;;;;;;7.57;4.65;;;;;;;23.71;50.97;100035.94;5028725;28;20041;-24
2021/06/12 08:44:05;;;;;;;9.93;4.85;;;;;;;23.87;51.53;100039.97;5028750;28;20036;-24
2021/06/12 08:46:30;;;;;;;7.50;4.90;;;;;;;24.22;49.75;100041.00;5027128;28;20557;-24
2021/06/12 08:48:56;;;;;;;10.30;5.18;;;;;;;23.78;50.67;100030.91;5028607;28;20151;-24
2021/06/12 08:51:21;;;;;;;8.15;5.05;;;;;;;23.97;50.40;100044.38;5028776;28;20042;-24
2021/06/12 08:53:50;;;;;;;8.38;4.57;;;;;;;23.90;49.47;100042.06;5028454;28;20057;-24
2021/06/12 08:56:16;;;;;;;7.13;4.30;;;;;;;24.06;49.48;100045.22;5028394;28;20025;-24
2021/06/12 08:58:41;;;;;;;10.75;5.10;;;;;;;24.04;49.68;100040.06;5028500;28;20040;-24
2021/06/12 09:01:07;;;;;;;6.45;4.28;;;;;;;23.93;48.94;100043.38;5028454;28;20422;-25
2021/06/12 09:03:39;;;;;;;7.70;4.40;;;;;;;23.77;50.31;100032.03;5028182;28;20030;-24
2021/06/12 09:06:05;;;;;;;7.38;4.60;;;;;;;24.20;50.42;100037.00;5028424;28;20035;-24
2021/06/12 09:08:32;;;;;;;6.60;4.18;;;;;;;24.37;48.73;100044.47;5028161;28;20045;-24
2021/06/12 09:11:10;;;;;;;6.97;4.75;;;;;;;24.39;49.69;100043.03;5028343;28;20026;-24
2021/06/12 09:13:57;;;;;;;7.10;4.72;;;;;;;24.66;47.58;100033.09;5028208;28;20060;-24
2021/06/12 09:16:33;;;;;;;8.88;4.25;;;;;;;24.61;47.54;100033.22;5028077;28;20029;-26
2021/06/12 09:19:04;;;;;;;7.47;4.95;;;;;;;24.63;48.09;100034.53;5028128;28;20042;-24
2021/06/12 09:21:40;;;;;;;6.05;4.00;;;;;;;24.74;46.51;100017.88;5028241;28;20121;-24
2021/06/12 09:24:21;;;;;;;6.88;3.83;;;;;;;24.78;46.56;100014.19;5028150;28;20040;-24
2021/06/12 09:26:54;;;;;;;5.25;3.92;;;;;;;24.80;45.87;100011.97;5028061;28;20061;-24
2021/06/12 09:29:20;;;;;;;5.30;3.92;;;;;;;24.83;46.52;100016.00;5028242;28;20069;-24
2021/06/12 09:31:50;;;;;;;6.95;4.20;;;;;;;24.98;45.87;100025.69;5028058;28;20037;-27
2021/06/12 09:34:17;;;;;;;9.32;4.50;;;;;;;24.93;46.49;100014.88;5027691;28;20405;-24
2021/06/12 09:36:43;;;;;;;5.00;3.85;;;;;;;24.71;46.64;100013.06;5027702;28;20026;-24
2021/06/12 09:39:19;;;;;;;5.65;3.85;;;;;;;24.81;44.37;100019.03;5027743;28;20040;-24
2021/06/12 09:41:49;;;;;;;5.60;4.32;;;;;;;24.83;46.59;100016.81;5028034;28;20425;-24
2021/06/12 09:44:44;;;;;;;6.70;3.90;;;;;;;25.24;44.41;100015.66;5027102;28;20037;-24
2021/06/12 09:47:21;;;;;;;5.03;3.28;;;;;;;25.04;42.93;100018.94;5027444;28;20160;-24
2021/06/12 09:49:46;;;;;;;5.55;4.07;;;;;;;25.56;42.93;100015.53;5027901;28;20072;-24
2021/06/12 09:52:13;;;;;;;4.95;3.30;;;;;;;25.58;41.36;99994.97;5027216;28;20441;-24
2021/06/12 09:54:39;;;;;;;4.57;3.63;;;;;;;25.45;42.01;100017.78;5027531;28;20025;-24
2021/06/12 09:57:05;;;;;;;7.13;3.67;;;;;;;25.61;42.46;100013.44;5027341;28;20038;-24
2021/06/12 09:59:38;;;;;;;5.07;3.63;;;;;;;25.89;40.07;100020.50;5027491;28;20033;-24
2021/06/12 10:02:04;;;;;;;10.00;4.95;;;;;;;25.43;42.10;100017.28;5027418;28;20029;-23
2021/06/12 10:04:29;;;;;;;6.03;3.17;;;;;;;25.43;40.98;100009.91;5025831;28;20037;-24
2021/06/12 10:06:55;;;;;;;4.40;3.45;;;;;;;25.52;43.73;100020.00;5027335;28;20029;-24
2021/06/12 10:09:21;;;;;;;5.60;3.40;;;;;;;25.32;40.50;100010.53;5025732;28;20099;-24
2021/06/12 10:11:47;;;;;;;4.72;3.20;;;;;;;25.14;41.65;100010.47;5025850;28;20378;-24
2021/06/12 10:14:12;;;;;;;4.88;3.03;;;;;;;24.67;43.11;99996.53;5009701;28;20037;-24
2021/06/12 10:16:39;;;;;;;6.90;3.10;;;;;;;25.07;40.69;99996.50;5027645;28;20029;-24
2021/06/12 10:19:05;;;;;;;5.43;3.20;;;;;;;25.77;40.01;100008.31;5027299;28;20060;-24
2021/06/12 10:21:30;;;;;;;4.15;2.78;;;;;;;25.61;40.74;99993.53;5027201;28;20536;-24
2021/06/12 10:23:56;;;;;;;6.63;5.07;;;;;;;25.55;41.11;99992.09;5027396;28;20099;-23
2021/06/12 10:26:21;;;;;;;5.25;3.45;;;;;;;25.76;43.71;99997.69;5025819;28;20044;-23
2021/06/12 10:28:47;;;;;;;7.22;5.18;;;;;;;26.57;42.11;100004.31;5027192;28;20067;-23
2021/06/12 10:31:18;;;;;;;6.43;4.50;;;;;;;26.97;39.01;99984.81;5027022;28;20083;-23
2021/06/12 10:33:46;;;;;;;4.25;3.00;;;;;;;27.25;37.26;99985.94;5026249;28;20029;-23
2021/06/12 10:36:15;;;;;;;4.85;3.08;;;;;;;27.64;36.72;99992.09;5025507;28;20037;-24
2021/06/12 10:38:41;;;;;;;4.93;3.08;;;;;;;26.85;37.89;99986.34;5026984;28;20026;-24
2021/06/12 10:41:35;;;;;;;4.07;2.53;;;;;;;27.17;37.45;99989.50;5027027;28;20470;-24
2021/06/12 10:44:02;;;;;;;4.43;2.53;;;;;;;27.81;36.28;99980.19;5024757;28;20137;-23
2021/06/12 10:46:45;;;;;;;4.70;2.85;;;;;;;27.43;34.36;99970.19;5026608;28;20025;-23
2021/06/12 10:49:10;;;;;;;4.50;2.25;;;;;;;27.45;33.90;99967.91;5027052;28;20041;-24
2021/06/12 10:51:36;;;;;;;3.65;2.40;;;;;;;27.30;35.36;99974.00;5025595;28;20425;-23
2021/06/12 10:54:11;;;;;;;5.30;2.60;;;;;;;27.62;35.09;99977.94;5028911;28;20087;-24
2021/06/12 10:56:37;;;;;;;2.53;2.25;;;;;;;26.75;35.34;99972.25;5030893;28;20065;-24
2021/06/12 10:59:02;;;;;;;3.15;2.53;;;;;;;26.56;34.76;99948.00;5046342;28;20043;-23
2021/06/12 11:01:30;;;;;;;3.03;2.35;;;;;;;26.54;35.06;99966.66;5038513;28;20029;-23
2021/06/12 11:07:05;;;;;;;6.32;2.85;;;;;;;26.94;36.86;99952.66;5036855;28;20044;-23
2021/06/12 11:09:34;;;;;;;6.38;3.33;;;;;;;27.06;37.86;99953.53;5050624;28;20033;-23
2021/06/12 11:12:13;;;;;;;4.47;2.92;;;;;;;26.68;36.10;99939.13;5050333;28;20232;-23
2021/06/12 11:14:39;;;;;;;4.40;2.50;;;;;;;26.67;36.49;99935.59;5030714;28;20528;-24
2021/06/12 11:17:04;;;;;;;4.20;2.88;;;;;;;27.27;36.20;99941.81;5031194;28;20037;-24
2021/06/12 11:19:31;;;;;;;7.03;3.20;;;;;;;27.48;35.31;99944.53;5040128;28;20505;-23
2021/06/12 11:22:24;;;;;;;4.40;3.20;;;;;;;26.94;37.90;99938.97;5044934;28;20026;-23
2021/06/12 11:24:55;;;;;;;4.82;3.03;;;;;;;26.62;37.76;99919.34;5030109;28;20274;-23